createdAt,value
2023-02-17T00:02:35.345Z,8.55
2023-02-17T00:05:40.250Z,8.64
2023-02-17T00:08:43.105Z,8.60
2023-02-17T00:11:47.091Z,8.49
2023-02-17T00:14:49.699Z,8.68
2023-02-17T00:17:52.268Z,8.66
2023-02-17T00:20:54.855Z,8.67
2023-02-17T00:23:58.500Z,8.69
2023-02-17T00:27:02.413Z,8.66
2023-02-17T00:30:05.785Z,8.61
2023-02-17T00:33:08.417Z,8.61
2023-02-17T00:36:13.940Z,8.48
2023-02-17T00:39:17.896Z,8.51
2023-02-17T00:42:21.836Z,8.66
2023-02-17T00:45:24.423Z,8.63
2023-02-17T00:48:27.131Z,8.64
2023-02-17T00:51:29.732Z,8.56
2023-02-17T00:54:32.411Z,8.57
2023-02-17T00:57:36.400Z,8.57
2023-02-17T01:00:39.017Z,8.70
2023-02-17T01:03:42.077Z,8.81
2023-02-17T01:06:44.746Z,8.68
2023-02-17T01:09:47.313Z,8.55
2023-02-17T01:12:51.330Z,8.69
2023-02-17T01:15:54.672Z,8.75
2023-02-17T01:18:57.436Z,8.67
2023-02-17T01:22:00.053Z,8.66
2023-02-17T01:25:02.868Z,8.74
2023-02-17T01:28:08.012Z,8.66
2023-02-17T01:31:11.694Z,8.69
2023-02-17T01:34:14.485Z,8.82
2023-02-17T01:37:17.183Z,8.57
2023-02-17T01:40:19.849Z,8.74
2023-02-17T01:43:23.800Z,8.72
2023-02-17T01:46:26.434Z,8.74
2023-02-17T01:49:33.816Z,8.77
2023-02-17T01:52:36.660Z,8.78
2023-02-17T01:55:40.782Z,8.68
2023-02-17T01:58:52.787Z,8.76
2023-02-17T02:01:59.715Z,8.62
2023-02-17T02:05:02.887Z,8.67
2023-02-17T02:08:09.689Z,8.72
2023-02-17T02:11:12.326Z,8.86
2023-02-17T02:14:16.684Z,8.85
2023-02-17T02:17:32.652Z,8.86
2023-02-17T02:20:51.284Z,8.79
2023-02-17T02:24:21.930Z,8.91
2023-02-17T02:27:40.863Z,8.97
2023-02-17T02:30:59.734Z,8.94
2023-02-17T02:34:07.608Z,8.91
2023-02-17T02:37:15.281Z,8.95
2023-02-17T02:40:20.943Z,8.95
2023-02-17T02:43:25.073Z,9.02
2023-02-17T02:46:27.662Z,9.10
2023-02-17T02:49:34.829Z,9.12
2023-02-17T02:52:48.997Z,9.07
2023-02-17T02:55:55.507Z,9.02
2023-02-17T02:59:10.805Z,9.18
2023-02-17T03:02:22.430Z,9.14
2023-02-17T03:05:39.175Z,9.14
2023-02-17T03:08:46.684Z,9.10
2023-02-17T03:11:50.119Z,9.15
2023-02-17T03:14:56.825Z,9.16
2023-02-17T03:17:59.997Z,9.16
2023-02-17T03:21:10.726Z,9.15
2023-02-17T03:24:13.349Z,9.10
2023-02-17T03:27:16.270Z,9.20
2023-02-17T03:30:19.044Z,9.19
2023-02-17T03:33:21.698Z,9.21
2023-02-17T03:36:25.611Z,9.16
2023-02-17T03:39:28.476Z,9.37
2023-02-17T03:42:31.044Z,9.26
2023-02-17T03:45:33.666Z,9.25
2023-02-17T03:48:36.255Z,9.30
2023-02-17T03:51:40.371Z,9.26
2023-02-17T03:54:42.981Z,9.31
2023-02-17T03:57:45.584Z,9.27
2023-02-17T04:00:48.157Z,9.25
2023-02-17T04:03:51.508Z,9.30
2023-02-17T04:06:55.455Z,9.25
2023-02-17T04:09:58.081Z,9.27
2023-02-17T04:13:00.686Z,9.31
2023-02-17T04:16:04.269Z,9.32
2023-02-17T04:19:07.462Z,9.30
2023-02-17T04:22:11.430Z,9.28
2023-02-17T04:25:15.111Z,9.42
2023-02-17T04:28:18.555Z,9.34
2023-02-17T04:31:21.278Z,9.34
2023-02-17T04:34:23.942Z,9.33
2023-02-17T04:37:27.901Z,9.49
2023-02-17T04:40:30.574Z,9.48
2023-02-17T04:43:33.645Z,9.52
2023-02-17T04:46:36.274Z,9.64
2023-02-17T04:49:38.838Z,9.58
2023-02-17T04:52:42.787Z,9.52
2023-02-17T04:55:48.614Z,9.56
2023-02-17T04:58:51.186Z,9.59
2023-02-17T05:01:53.775Z,9.52
2023-02-17T05:04:56.377Z,9.62
2023-02-17T05:08:00.305Z,9.54
2023-02-17T05:11:02.892Z,9.59
2023-02-17T05:14:05.509Z,9.70
2023-02-17T05:17:08.136Z,9.68
2023-02-17T05:20:11.390Z,9.59
2023-02-17T05:23:15.346Z,9.54
2023-02-17T05:26:17.923Z,9.59
2023-02-17T05:29:20.533Z,9.68
2023-02-17T05:32:23.868Z,9.68
2023-02-17T05:35:26.497Z,9.63
2023-02-17T05:38:30.592Z,9.56
2023-02-17T05:41:33.228Z,9.59
2023-02-17T05:44:35.842Z,9.46
2023-02-17T05:47:38.406Z,9.59
2023-02-17T05:50:41.105Z,9.59
2023-02-17T05:53:45.133Z,9.48
2023-02-17T05:56:48.231Z,9.57
2023-02-17T05:59:50.825Z,9.51
2023-02-17T06:02:53.623Z,9.64
2023-02-17T06:05:56.198Z,9.71
2023-02-17T06:09:00.145Z,9.64
2023-02-17T06:12:02.701Z,9.69
2023-02-17T06:15:05.667Z,9.74
2023-02-17T06:18:08.245Z,9.74
2023-02-17T06:21:10.837Z,9.68
2023-02-17T06:24:14.796Z,9.61
2023-02-17T06:27:17.377Z,9.58
2023-02-17T06:30:21.321Z,9.61
2023-02-17T06:33:23.935Z,9.63
2023-02-17T06:36:26.531Z,9.70
2023-02-17T06:39:30.608Z,9.68
2023-02-17T06:42:33.336Z,9.61
2023-02-17T06:45:35.901Z,9.65
2023-02-17T06:48:38.496Z,9.67
2023-02-17T06:51:41.160Z,9.60
2023-02-17T06:54:47.146Z,9.71
2023-02-17T06:57:49.791Z,9.60
2023-02-17T07:00:52.540Z,9.59
2023-02-17T07:03:56.194Z,9.67
2023-02-17T07:06:58.776Z,9.68
2023-02-17T07:10:03.403Z,9.68
2023-02-17T07:13:06.052Z,9.56
2023-02-17T07:16:09.778Z,9.74
2023-02-17T07:19:12.509Z,9.73
2023-02-17T07:22:15.119Z,9.66
2023-02-17T07:25:19.096Z,9.55
2023-02-17T07:28:21.724Z,9.68
2023-02-17T07:31:24.440Z,9.75
2023-02-17T07:34:27.146Z,9.68
2023-02-17T07:37:29.737Z,9.66
2023-02-17T07:40:33.669Z,9.70
2023-02-17T07:43:36.468Z,9.70
2023-02-17T07:46:39.670Z,9.63
2023-02-17T07:49:42.253Z,9.70
2023-02-17T07:52:44.852Z,9.68
2023-02-17T07:55:48.808Z,9.72
2023-02-17T07:58:51.569Z,9.72
2023-02-17T08:01:54.558Z,9.70
2023-02-17T08:04:57.209Z,9.80
2023-02-17T08:08:17.425Z,9.75
2023-02-17T08:11:38.917Z,9.71
2023-02-17T08:14:41.874Z,9.68
2023-02-17T08:17:44.643Z,9.66
2023-02-17T08:20:47.252Z,9.72
2023-02-17T08:23:49.949Z,9.69
2023-02-17T08:26:53.940Z,9.75
2023-02-17T08:29:56.629Z,9.75
2023-02-17T08:32:59.332Z,9.81
2023-02-17T08:36:07.625Z,9.73
2023-02-17T08:39:13.779Z,9.72
2023-02-17T08:42:17.955Z,9.75
2023-02-17T08:45:20.603Z,9.74
2023-02-17T08:48:23.213Z,9.74
2023-02-17T08:51:26.429Z,9.72
2023-02-17T08:54:29.113Z,9.71
2023-02-17T08:57:33.005Z,9.69
2023-02-17T09:00:35.762Z,9.70
2023-02-17T09:03:39.492Z,9.78
2023-02-17T09:06:45.288Z,9.80
2023-02-17T09:09:47.904Z,9.81
2023-02-17T09:12:51.912Z,9.78
2023-02-17T09:15:55.341Z,9.82
2023-02-17T09:18:58.089Z,9.89
2023-02-17T09:22:00.761Z,9.81
2023-02-17T09:25:03.744Z,9.76
2023-02-17T09:28:07.985Z,9.80
2023-02-17T09:31:11.771Z,9.78
2023-02-17T09:34:15.394Z,9.81
2023-02-17T09:37:18.552Z,9.79
2023-02-17T09:40:25.282Z,9.77
2023-02-17T09:43:31.543Z,9.79
2023-02-17T09:46:38.240Z,9.80
2023-02-17T09:49:45.217Z,9.87
2023-02-17T09:52:55.980Z,9.91
2023-02-17T09:56:02.694Z,9.85
2023-02-17T09:59:15.151Z,9.91
2023-02-17T10:02:24.370Z,9.92
2023-02-17T10:05:31.540Z,9.89
2023-02-17T10:08:40.061Z,9.92
2023-02-17T10:11:49.040Z,9.96
2023-02-17T10:14:57.237Z,10.00
2023-02-17T10:18:06.685Z,10.07
2023-02-17T10:21:15.582Z,10.07
2023-02-17T10:24:18.248Z,10.11
2023-02-17T10:27:29.505Z,10.12
2023-02-17T10:30:40.805Z,10.17
2023-02-17T10:33:52.907Z,10.05
2023-02-17T10:37:00.509Z,10.11
2023-02-17T10:40:11.245Z,10.09
2023-02-17T10:43:17.824Z,10.18
2023-02-17T10:46:28.923Z,10.14
2023-02-17T10:49:35.807Z,10.12
2023-02-17T10:52:40.979Z,10.08
2023-02-17T10:55:54.083Z,10.10
2023-02-17T10:59:00.634Z,10.19
2023-02-17T11:02:18.015Z,10.25
2023-02-17T11:05:26.557Z,10.25
2023-02-17T11:08:33.475Z,10.35
2023-02-17T11:11:37.785Z,10.29
2023-02-17T11:14:46.446Z,10.31
2023-02-17T11:17:51.426Z,10.30
2023-02-17T11:21:01.253Z,10.32
2023-02-17T11:24:06.459Z,10.34
2023-02-17T11:27:11.204Z,10.49
2023-02-17T11:30:18.614Z,10.46
2023-02-17T11:33:29.743Z,10.45
2023-02-17T11:36:33.107Z,10.49
2023-02-17T11:39:39.861Z,10.50
2023-02-17T11:42:42.475Z,10.49
2023-02-17T11:45:53.921Z,10.49
2023-02-17T11:49:23.751Z,10.61
2023-02-17T11:52:50.041Z,10.55
2023-02-17T11:56:07.688Z,10.54
2023-02-17T11:59:26.498Z,10.50
2023-02-17T12:02:45.375Z,10.53
2023-02-17T12:06:01.958Z,10.59
2023-02-17T12:09:15.326Z,10.56
2023-02-17T12:12:27.362Z,10.56
2023-02-17T12:15:49.592Z,10.52
2023-02-17T12:19:03.129Z,10.52
2023-02-17T12:22:17.301Z,10.53
2023-02-17T12:25:29.008Z,10.54
2023-02-17T12:28:49.650Z,10.60
2023-02-17T12:32:04.528Z,10.62
2023-02-17T12:35:19.939Z,10.65
2023-02-17T12:38:28.736Z,10.66
2023-02-17T12:41:37.245Z,10.68
2023-02-17T12:44:45.137Z,10.62
2023-02-17T12:47:55.203Z,10.69
2023-02-17T12:51:05.574Z,10.69
2023-02-17T12:54:16.032Z,10.68
2023-02-17T12:57:23.421Z,10.71
2023-02-17T13:00:34.473Z,10.72
2023-02-17T13:03:37.879Z,10.78
2023-02-17T13:06:46.114Z,10.88
2023-02-17T13:09:51.696Z,10.77
2023-02-17T13:13:01.042Z,10.74
2023-02-17T13:16:06.962Z,10.82
2023-02-17T13:19:10.038Z,10.73
2023-02-17T13:22:24.103Z,10.69
2023-02-17T13:25:35.053Z,10.72
2023-02-17T13:28:42.476Z,10.73
2023-02-17T13:31:48.098Z,10.77
2023-02-17T13:35:02.081Z,10.74
2023-02-17T13:38:05.003Z,10.71
2023-02-17T13:41:08.947Z,10.75
2023-02-17T13:44:26.862Z,10.69
2023-02-17T13:47:31.847Z,10.76
2023-02-17T13:50:36.741Z,10.82
2023-02-17T13:53:41.834Z,10.72
2023-02-17T13:56:51.588Z,10.75
2023-02-17T13:59:54.597Z,10.86
2023-02-17T14:02:58.845Z,10.85
2023-02-17T14:06:03.054Z,10.86
2023-02-17T14:09:13.687Z,10.79
2023-02-17T14:12:24.412Z,10.74
2023-02-17T14:15:29.650Z,10.76
2023-02-17T14:18:35.381Z,10.82
2023-02-17T14:21:39.732Z,10.81
2023-02-17T14:24:42.326Z,10.84
2023-02-17T14:27:47.874Z,10.92
2023-02-17T14:30:51.434Z,10.90
2023-02-17T14:33:59.098Z,10.94
2023-02-17T14:37:09.304Z,10.88
2023-02-17T14:40:17.670Z,10.98
2023-02-17T14:43:21.603Z,10.94
2023-02-17T14:46:24.630Z,10.99
2023-02-17T14:49:27.423Z,10.87
2023-02-17T14:52:30.285Z,10.84
2023-02-17T14:55:36.185Z,10.80
2023-02-17T14:58:40.196Z,10.72
2023-02-17T15:01:42.822Z,10.52
2023-02-17T15:04:45.626Z,10.47
2023-02-17T15:07:49.433Z,10.32
2023-02-17T15:10:52.252Z,10.35
2023-02-17T15:13:56.202Z,10.28
2023-02-17T15:16:58.815Z,10.16
2023-02-17T15:20:01.409Z,10.12
2023-02-17T15:23:03.984Z,10.07
2023-02-17T15:26:09.436Z,10.05
2023-02-17T15:29:18.268Z,10.09
2023-02-17T15:32:20.930Z,10.08
2023-02-17T15:35:26.094Z,10.03
2023-02-17T15:38:28.809Z,9.88
2023-02-17T15:41:31.809Z,9.86
2023-02-17T15:44:43.154Z,9.81
2023-02-17T15:47:46.496Z,9.78
2023-02-17T15:50:49.108Z,9.81
2023-02-17T15:53:52.390Z,9.75
2023-02-17T15:56:55.048Z,9.68
2023-02-17T15:59:59.076Z,9.64
2023-02-17T16:03:01.802Z,9.56
2023-02-17T16:06:04.680Z,9.56
2023-02-17T16:09:07.919Z,9.43
2023-02-17T16:12:17.150Z,9.41
2023-02-17T16:15:24.018Z,9.33
2023-02-17T16:18:26.659Z,9.28
2023-02-17T16:21:29.714Z,9.13
2023-02-17T16:24:32.543Z,9.14
2023-02-17T16:27:35.234Z,9.12
2023-02-17T16:30:39.293Z,9.09
2023-02-17T16:33:41.913Z,9.03
2023-02-17T16:36:44.859Z,8.92
2023-02-17T16:39:47.573Z,8.95
2023-02-17T16:42:50.278Z,8.83
2023-02-17T16:45:56.965Z,8.82
2023-02-17T16:49:00.913Z,8.80
2023-02-17T16:52:06.334Z,8.71
2023-02-17T16:55:09.143Z,8.62
2023-02-17T16:58:15.745Z,8.61
2023-02-17T17:01:19.798Z,8.58
2023-02-17T17:04:22.745Z,8.53
2023-02-17T17:07:25.353Z,8.54
2023-02-17T17:10:30.538Z,8.56
2023-02-17T17:13:33.112Z,8.46
2023-02-17T17:16:37.943Z,8.51
2023-02-17T17:19:40.592Z,8.44
2023-02-17T17:22:43.321Z,8.41
2023-02-17T17:25:47.103Z,8.38
2023-02-17T17:28:50.209Z,8.38
2023-02-17T17:31:54.311Z,8.34
2023-02-17T17:34:56.907Z,8.26
2023-02-17T17:37:59.698Z,8.22
2023-02-17T17:41:02.275Z,8.23
2023-02-17T17:44:04.980Z,8.27
2023-02-17T17:47:21.300Z,8.20
2023-02-17T17:50:30.928Z,8.20
2023-02-17T17:53:33.576Z,8.21
2023-02-17T17:56:38.785Z,8.16
2023-02-17T17:59:41.393Z,8.14
2023-02-17T18:02:45.332Z,8.17
2023-02-17T18:05:48.563Z,8.13
2023-02-17T18:08:52.285Z,8.10
2023-02-17T18:11:56.983Z,8.11
2023-02-17T18:15:02.609Z,7.98
2023-02-17T18:18:06.893Z,8.07
2023-02-17T18:21:09.481Z,8.04
2023-02-17T18:24:12.109Z,8.04
2023-02-17T18:27:14.895Z,7.94
2023-02-17T18:30:19.819Z,7.90
2023-02-17T18:33:23.864Z,7.89
2023-02-17T18:36:27.593Z,7.96
2023-02-17T18:39:30.285Z,7.99
2023-02-17T18:42:33.951Z,7.91
2023-02-17T18:45:37.122Z,7.84
2023-02-17T18:48:41.139Z,7.91
2023-02-17T18:51:43.737Z,7.77
2023-02-17T18:54:46.992Z,7.90
2023-02-17T18:57:49.585Z,7.92
2023-02-17T19:00:52.191Z,7.89
2023-02-17T19:03:56.440Z,7.93
2023-02-17T19:07:03.094Z,7.94
2023-02-17T19:10:06.980Z,7.99
2023-02-17T19:13:09.633Z,7.95
2023-02-17T19:16:15.266Z,8.05
2023-02-17T19:19:19.285Z,7.95
2023-02-17T19:22:21.987Z,7.89
2023-02-17T19:25:25.099Z,7.92
2023-02-17T19:28:27.779Z,7.86
2023-02-17T19:31:31.565Z,7.89
2023-02-17T19:34:35.693Z,7.89
2023-02-17T19:37:38.313Z,7.83
2023-02-17T19:40:41.123Z,7.89
2023-02-17T19:43:44.674Z,7.84
2023-02-17T19:46:47.352Z,7.82
2023-02-17T19:49:51.324Z,7.83
2023-02-17T19:52:53.873Z,7.75
2023-02-17T19:55:56.455Z,7.75
2023-02-17T19:58:59.495Z,7.87
2023-02-17T20:02:02.131Z,7.81
2023-02-17T20:05:06.687Z,7.74
2023-02-17T20:08:09.342Z,7.70
2023-02-17T20:11:12.980Z,7.72
2023-02-17T20:14:15.906Z,7.63
2023-02-17T20:17:18.530Z,7.61
2023-02-17T20:20:22.611Z,7.68
2023-02-17T20:23:25.215Z,7.57
2023-02-17T20:26:31.391Z,7.60
2023-02-17T20:29:35.335Z,7.58
2023-02-17T20:32:37.945Z,7.48
2023-02-17T20:35:41.880Z,7.55
2023-02-17T20:38:44.932Z,7.61
2023-02-17T20:41:47.615Z,7.52
2023-02-17T20:44:50.986Z,7.61
2023-02-17T20:47:53.627Z,7.52
2023-02-17T20:50:58.914Z,7.62
2023-02-17T20:54:01.588Z,7.56
2023-02-17T20:57:04.825Z,7.54
2023-02-17T21:00:09.555Z,7.59
2023-02-17T21:03:12.177Z,7.50
2023-02-17T21:06:21.663Z,7.42
2023-02-17T21:09:24.465Z,7.39
2023-02-17T21:12:27.074Z,7.42
2023-02-17T21:15:29.779Z,7.46
2023-02-17T21:18:32.392Z,7.35
2023-02-17T21:21:36.595Z,7.48
2023-02-17T21:24:39.240Z,7.36
2023-02-17T21:27:41.850Z,7.34
2023-02-17T21:30:46.915Z,7.31
2023-02-17T21:33:49.682Z,7.35
2023-02-17T21:36:53.615Z,7.32
2023-02-17T21:39:56.215Z,7.25
2023-02-17T21:43:16.337Z,7.33
2023-02-17T21:46:20.084Z,7.35
2023-02-17T21:49:23.304Z,7.33
2023-02-17T21:52:27.297Z,7.30
2023-02-17T21:55:29.879Z,7.21
2023-02-17T21:58:33.080Z,7.30
2023-02-17T22:01:36.102Z,7.21
2023-02-17T22:04:38.736Z,7.24
2023-02-17T22:07:42.676Z,7.29
2023-02-17T22:10:45.711Z,7.24
2023-02-17T22:13:48.865Z,7.16
2023-02-17T22:16:51.592Z,7.19
2023-02-17T22:19:54.169Z,7.14
2023-02-17T22:22:58.139Z,7.11
2023-02-17T22:26:00.768Z,7.17
2023-02-17T22:29:03.507Z,7.13
2023-02-17T22:32:06.243Z,7.10
2023-02-17T22:35:09.459Z,7.01
2023-02-17T22:38:13.408Z,7.13
2023-02-17T22:41:18.539Z,7.05
2023-02-17T22:44:21.182Z,7.11
2023-02-17T22:47:23.853Z,7.04
2023-02-17T22:50:26.442Z,7.16
2023-02-17T22:53:30.424Z,7.25
2023-02-17T22:56:33.069Z,7.26
2023-02-17T22:59:35.688Z,7.08
2023-02-17T23:02:38.314Z,7.12
2023-02-17T23:05:42.156Z,7.21
2023-02-17T23:08:46.941Z,7.27
2023-02-17T23:11:53.926Z,7.10
2023-02-17T23:14:56.840Z,7.13
2023-02-17T23:17:59.424Z,7.10
2023-02-17T23:21:08.775Z,7.11
2023-02-17T23:24:13.123Z,7.22
2023-02-17T23:27:16.285Z,7.10
2023-02-17T23:30:21.364Z,7.05
2023-02-17T23:33:24.809Z,7.05
2023-02-17T23:36:27.556Z,7.15
2023-02-17T23:39:31.503Z,7.10
2023-02-17T23:42:34.092Z,7.26
2023-02-17T23:45:38.985Z,7.14
2023-02-17T23:48:41.553Z,7.16
2023-02-17T23:51:46.152Z,7.04
2023-02-17T23:54:50.145Z,7.10
2023-02-17T23:57:52.718Z,7.05
